Time;durP1;ratioP1;P1;durP2;ratioP2;P2;SDS_P1;SDS_P2;PMS_P1;PMS_P2;Temp;Humidity;BMP_temperature;BMP_pressure;BME280_temperature;BME280_humidity;BME280_pressure;Samples;Min_cycle;Max_cycle;Signal;HPM_P1;HPM_P2
2022/05/13 00:01:43;;;;;;;243.50;234.23;;;9.10;99.90;;;;;;4994694;28;20458;-79
2022/05/13 00:04:11;;;;;;;332.93;320.33;;;8.90;99.90;;;;;;4998108;28;20454;-81
2022/05/13 00:06:38;;;;;;;355.73;341.13;;;8.80;99.90;;;;;;4997357;28;20478;-81
2022/05/13 00:09:05;;;;;;;269.17;259.17;;;8.80;99.90;;;;;;4996581;28;20450;-81
2022/05/13 00:11:32;;;;;;;289.80;278.33;;;8.80;99.90;;;;;;4998172;28;20458;-80
2022/05/13 00:13:59;;;;;;;263.60;254.10;;;8.70;99.90;;;;;;4997648;28;20457;-80
2022/05/13 00:16:26;;;;;;;268.63;258.47;;;8.60;99.90;;;;;;4996785;28;20470;-81
2022/05/13 00:18:53;;;;;;;266.47;256.07;;;8.80;99.90;;;;;;4996866;28;20454;-81
2022/05/13 00:21:21;;;;;;;279.27;268.60;;;8.80;99.90;;;;;;4998159;28;20454;-81
2022/05/13 00:23:48;;;;;;;253.90;244.33;;;9.10;99.90;;;;;;4997208;28;20482;-82
2022/05/13 00:26:15;;;;;;;173.80;167.20;;;9.20;99.90;;;;;;4996104;28;20474;-80
2022/05/13 00:28:42;;;;;;;167.17;160.97;;;9.30;99.90;;;;;;4994965;28;20450;-80
2022/05/13 00:31:08;;;;;;;100.47;96.43;;;9.40;99.90;;;;;;4996553;28;20454;-81
2022/05/13 00:33:35;;;;;;;70.03;66.77;;;9.40;99.90;;;;;;4997172;28;20455;-81
2022/05/13 00:36:02;;;;;;;27.63;26.17;;;9.30;99.90;;;;;;4997431;28;21006;-80
2022/05/13 00:38:30;;;;;;;46.27;44.17;;;9.20;99.90;;;;;;5002235;28;20838;-81
2022/05/13 00:40:57;;;;;;;32.13;30.50;;;9.20;99.90;;;;;;4996892;28;20557;-81
2022/05/13 00:43:46;;;;;;;30.17;28.80;;;9.20;99.90;;;;;;4996140;28;21005;-81
2022/05/13 00:46:13;;;;;;;24.97;23.47;;;9.00;99.90;;;;;;4993596;28;20485;-81
2022/05/13 00:48:40;;;;;;;39.47;37.67;;;9.00;99.90;;;;;;4995798;28;20450;-81
2022/05/13 00:51:09;;;;;;;37.70;35.87;;;9.00;99.90;;;;;;4996887;28;20461;-81
2022/05/13 00:53:38;;;;;;;21.40;20.30;;;9.00;99.90;;;;;;4996457;28;20469;-81
2022/05/13 00:56:05;;;;;;;27.37;25.83;;;9.20;99.90;;;;;;4996555;28;20474;-82
2022/05/13 00:58:34;;;;;;;14.87;13.37;;;9.30;99.90;;;;;;4995406;28;20454;-81
2022/05/13 01:01:01;;;;;;;14.50;13.60;;;9.40;99.90;;;;;;4996803;28;20453;-81
2022/05/13 01:03:28;;;;;;;12.47;11.57;;;9.40;99.90;;;;;;4996483;28;20474;-81
2022/05/13 01:06:00;;;;;;;14.17;13.07;;;9.40;99.90;;;;;;4996562;28;20860;-81
2022/05/13 01:08:30;;;;;;;12.03;11.03;;;9.30;99.90;;;;;;4995192;28;20461;-81
2022/05/13 01:10:59;;;;;;;9.87;8.87;;;9.30;99.90;;;;;;4995960;28;20458;-81
2022/05/13 01:13:29;;;;;;;7.93;7.23;;;9.40;99.90;;;;;;4996174;28;20461;-81
2022/05/13 01:15:56;;;;;;;9.63;6.87;;;9.50;99.90;;;;;;4996436;28;20560;-81
2022/05/13 01:18:26;;;;;;;12.63;7.10;;;9.40;99.90;;;;;;4995685;28;20450;-80
2022/05/13 01:20:53;;;;;;;8.80;5.90;;;9.40;99.90;;;;;;4996048;28;20454;-81
2022/05/13 01:23:24;;;;;;;12.37;6.30;;;9.40;99.90;;;;;;4996103;28;21046;-81
2022/05/13 01:25:53;;;;;;;13.90;6.07;;;9.40;99.90;;;;;;4996581;28;20849;-81
2022/05/13 01:28:24;;;;;;;10.23;7.80;;;9.40;99.90;;;;;;4995194;28;20454;-81
2022/05/13 01:30:54;;;;;;;9.80;5.87;;;9.20;99.90;;;;;;4996708;28;20458;-81
2022/05/13 01:33:22;;;;;;;8.13;7.43;;;9.40;99.90;;;;;;4995805;28;20446;-82
2022/05/13 01:35:51;;;;;;;10.23;9.00;;;9.40;99.90;;;;;;4996423;28;20477;-80
2022/05/13 01:38:19;;;;;;;12.07;10.77;;;9.50;99.90;;;;;;4994892;28;20451;-81
2022/05/13 01:40:47;;;;;;;9.60;8.47;;;9.30;99.90;;;;;;4996522;28;20450;-82
2022/05/13 01:43:14;;;;;;;6.27;5.67;;;9.40;99.90;;;;;;4995485;28;20826;-81
2022/05/13 01:45:41;;;;;;;7.67;6.97;;;9.40;99.90;;;;;;4996051;28;20489;-81
2022/05/13 01:48:09;;;;;;;16.87;15.47;;;9.30;99.90;;;;;;4995103;28;20458;-80
2022/05/13 01:50:36;;;;;;;26.60;24.83;;;9.20;99.90;;;;;;4995908;28;20454;-81
2022/05/13 01:53:05;;;;;;;42.73;40.67;;;9.10;99.90;;;;;;4995799;28;20446;-81
2022/05/13 01:55:32;;;;;;;39.77;37.90;;;9.10;99.90;;;;;;4996226;28;21000;-81
2022/05/13 01:58:00;;;;;;;46.00;43.63;;;9.10;99.90;;;;;;4995351;28;20461;-81
2022/05/13 02:00:28;;;;;;;32.43;30.67;;;9.20;99.90;;;;;;4994840;28;20457;-81
2022/05/13 02:05:39;;;;;;;31.57;29.87;;;9.30;99.90;;;;;;4995711;28;20465;-81
2022/05/13 02:08:07;;;;;;;21.60;20.27;;;9.30;99.90;;;;;;4996013;28;20465;-79
2022/05/13 02:10:34;;;;;;;11.63;10.63;;;9.40;99.90;;;;;;4995516;28;20481;-80
2022/05/13 02:13:02;;;;;;;14.13;13.20;;;9.40;99.90;;;;;;4995471;28;20457;-81
2022/05/13 02:15:29;;;;;;;11.23;10.23;;;9.30;99.90;;;;;;4994732;28;20470;-81
2022/05/13 02:17:56;;;;;;;8.70;8.00;;;9.40;99.90;;;;;;4994995;28;20454;-81
2022/05/13 02:20:22;;;;;;;8.50;5.77;;;9.50;99.90;;;;;;4994616;28;20458;-81
2022/05/13 02:22:49;;;;;;;12.00;5.53;;;9.60;99.90;;;;;;4998619;28;20821;-81
2022/05/13 02:25:16;;;;;;;9.20;7.07;;;9.50;99.90;;;;;;4998943;28;20874;-81
2022/05/13 02:27:43;;;;;;;12.40;5.27;;;9.40;99.90;;;;;;4999224;28;20458;-81
2022/05/13 02:30:12;;;;;;;6.80;4.90;;;9.40;99.90;;;;;;4998207;28;20840;-82
2022/05/13 02:32:40;;;;;;;10.00;6.30;;;9.40;99.90;;;;;;4998601;28;20450;-80
2022/05/13 02:35:08;;;;;;;8.20;6.50;;;9.20;99.90;;;;;;4998669;28;20464;-81
2022/05/13 02:37:35;;;;;;;11.37;7.40;;;9.20;99.90;;;;;;4998922;28;20454;-81
2022/05/13 02:40:01;;;;;;;10.87;10.17;;;9.00;99.90;;;;;;4998365;28;20465;-81
2022/05/13 02:42:28;;;;;;;10.87;9.77;;;9.00;99.90;;;;;;4998305;28;20454;-81
2022/05/13 02:44:55;;;;;;;11.03;10.27;;;9.00;99.90;;;;;;4999185;28;20485;-81
2022/05/13 02:47:23;;;;;;;10.50;9.60;;;9.00;99.90;;;;;;4998725;28;20485;-81
2022/05/13 02:50:17;;;;;;;10.27;9.47;;;9.10;99.90;;;;;;4998081;28;20456;-81
2022/05/13 02:52:36;;;;;;;11.03;8.17;;;9.30;99.90;;;;;;4998451;28;20458;-81
2022/05/13 02:55:03;;;;;;;7.80;7.20;;;9.30;99.90;;;;;;4998881;28;20461;-81
2022/05/13 02:57:30;;;;;;;7.70;5.60;;;9.30;99.90;;;;;;4997928;28;20837;-83
2022/05/13 02:59:59;;;;;;;8.00;5.83;;;9.30;99.90;;;;;;4995682;28;20461;-81
2022/05/13 03:02:27;;;;;;;12.40;6.37;;;9.10;99.50;;;;;;4978855;28;20463;-81
2022/05/13 03:04:53;;;;;;;6.77;4.90;;;9.20;98.70;;;;;;4989424;28;20859;-81
2022/05/13 03:07:20;;;;;;;7.30;5.20;;;9.40;97.20;;;;;;4998567;28;20477;-81
2022/05/13 03:09:47;;;;;;;5.37;3.03;;;9.40;95.40;;;;;;4996979;28;20461;-81
2022/05/13 03:12:14;;;;;;;4.40;2.70;;;9.40;93.60;;;;;;4996489;28;20454;-80
2022/05/13 03:14:40;;;;;;;7.67;2.80;;;9.40;93.30;;;;;;4997821;28;20453;-81
2022/05/13 03:17:08;;;;;;;4.23;2.50;;;9.40;93.00;;;;;;4998697;28;20500;-81
2022/05/13 03:19:38;;;;;;;5.60;2.57;;;9.30;92.90;;;;;;4997074;28;20458;-81
2022/05/13 03:22:05;;;;;;;4.20;2.43;;;9.30;92.50;;;;;;4997533;28;20457;-81
2022/05/13 03:24:32;;;;;;;4.67;2.73;;;9.30;92.80;;;;;;4998253;28;20485;-81
2022/05/13 03:27:00;;;;;;;6.00;2.73;;;9.10;93.50;;;;;;4996902;28;20474;-82
2022/05/13 03:29:27;;;;;;;8.97;4.17;;;9.00;94.10;;;;;;4998225;28;20513;-85
2022/05/13 03:31:54;;;;;;;4.90;3.87;;;8.90;95.10;;;;;;5004122;28;20490;-85
2022/05/13 03:34:22;;;;;;;5.20;3.33;;;8.90;95.50;;;;;;5002404;28;20481;-86
2022/05/13 03:36:50;;;;;;;5.10;4.60;;;8.80;96.20;;;;;;5004666;28;20532;-86
2022/05/13 03:39:17;;;;;;;5.10;3.90;;;8.80;96.50;;;;;;5002303;28;20454;-85
2022/05/13 03:41:44;;;;;;;9.97;4.70;;;8.80;96.50;;;;;;5003463;28;20529;-86
2022/05/13 03:44:11;;;;;;;5.63;5.10;;;8.70;96.50;;;;;;5002466;28;20473;-82
2022/05/13 03:46:38;;;;;;;9.40;5.33;;;8.70;97.60;;;;;;4999011;28;20478;-82
2022/05/13 03:49:04;;;;;;;7.63;6.23;;;8.80;97.10;;;;;;4996919;28;20454;-83
2022/05/13 03:51:32;;;;;;;8.40;5.80;;;8.80;96.90;;;;;;4995293;28;20455;-81
2022/05/13 03:54:00;;;;;;;10.23;6.83;;;8.80;97.60;;;;;;4989368;28;20450;-81
2022/05/13 03:56:27;;;;;;;10.23;6.93;;;8.80;97.40;;;;;;4981251;28;20474;-81
2022/05/13 03:58:53;;;;;;;8.43;5.97;;;8.80;96.90;;;;;;4997048;28;20465;-81
2022/05/13 04:01:20;;;;;;;6.60;6.00;;;8.80;96.90;;;;;;4997214;28;20454;-81
2022/05/13 04:03:48;;;;;;;11.30;6.90;;;8.90;96.60;;;;;;4994719;28;20477;-80
2022/05/13 04:09:01;;;;;;;6.20;5.60;;;9.10;96.10;;;;;;4995877;28;20530;-81
2022/05/13 04:11:31;;;;;;;8.43;5.27;;;9.30;94.50;;;;;;4999051;28;20461;-83
2022/05/13 04:16:43;;;;;;;9.53;3.77;;;9.40;93.50;;;;;;4996677;28;20464;-82
2022/05/13 04:19:11;;;;;;;6.77;3.87;;;9.40;93.70;;;;;;4995280;28;20954;-82
2022/05/13 04:21:39;;;;;;;5.40;3.33;;;9.50;93.50;;;;;;4998519;28;20465;-80
2022/05/13 04:24:10;;;;;;;5.57;3.47;;;9.40;93.80;;;;;;4996436;28;20481;-82
2022/05/13 04:26:37;;;;;;;9.77;4.50;;;9.50;94.00;;;;;;4996006;28;20480;-81
2022/05/13 04:29:05;;;;;;;6.90;4.10;;;9.50;93.80;;;;;;4996718;28;20990;-81
2022/05/13 04:31:33;;;;;;;9.00;3.07;;;9.50;93.80;;;;;;4996148;28;20454;-82
2022/05/13 04:34:00;;;;;;;10.33;4.03;;;9.50;94.20;;;;;;4994924;28;20454;-81
2022/05/13 04:36:28;;;;;;;7.53;3.73;;;9.60;93.60;;;;;;4997173;28;20513;-81
2022/05/13 04:38:55;;;;;;;4.87;3.63;;;9.70;93.30;;;;;;4995930;28;20458;-82
2022/05/13 04:44:09;;;;;;;4.70;3.20;;;10.10;91.00;;;;;;4996213;28;20569;-81
2022/05/13 04:46:37;;;;;;;7.10;2.80;;;10.30;90.70;;;;;;4997737;28;20574;-81
2022/05/13 04:49:04;;;;;;;7.73;2.43;;;10.40;88.80;;;;;;4996008;28;20459;-81
2022/05/13 04:51:31;;;;;;;8.83;2.33;;;10.60;85.50;;;;;;4998938;28;20478;-82
2022/05/13 04:53:59;;;;;;;8.40;2.53;;;10.70;83.20;;;;;;4997367;28;20992;-81
2022/05/13 04:56:29;;;;;;;11.87;2.30;;;10.70;83.30;;;;;;4997610;28;20477;-82
2022/05/13 04:58:56;;;;;;;8.53;2.27;;;10.70;81.90;;;;;;4995038;28;20837;-82
2022/05/13 05:01:26;;;;;;;8.23;2.60;;;10.70;82.20;;;;;;5002954;28;20827;-86
2022/05/13 05:03:53;;;;;;;4.57;2.23;;;10.70;81.50;;;;;;5000164;28;20470;-87
2022/05/13 05:06:22;;;;;;;5.43;3.10;;;10.60;81.60;;;;;;5000155;28;20564;-81
2022/05/13 05:08:49;;;;;;;16.13;3.30;;;10.70;80.70;;;;;;4996438;28;20466;-81
2022/05/13 05:11:18;;;;;;;7.20;2.37;;;10.70;81.40;;;;;;4996987;28;20461;-81
2022/05/13 05:13:47;;;;;;;4.77;2.33;;;10.70;81.20;;;;;;4997684;28;20446;-82
2022/05/13 05:16:16;;;;;;;9.20;3.00;;;10.80;80.10;;;;;;4997877;28;20474;-83
2022/05/13 05:18:43;;;;;;;10.63;2.43;;;10.80;80.60;;;;;;4999244;28;20482;-87
2022/05/13 05:21:13;;;;;;;12.47;2.33;;;10.90;80.20;;;;;;4997336;28;20485;-88
2022/05/13 05:23:43;;;;;;;9.20;3.00;;;11.00;78.70;;;;;;5002866;28;20987;-88
2022/05/13 05:26:11;;;;;;;7.37;3.13;;;11.30;77.90;;;;;;5002375;28;20476;-81
2022/05/13 05:28:38;;;;;;;6.30;2.30;;;11.70;72.60;;;;;;5011627;28;20450;-81
2022/05/13 05:31:07;;;;;;;7.63;2.23;;;12.00;70.90;;;;;;5010718;28;20451;-81
2022/05/13 05:33:34;;;;;;;7.57;2.50;;;12.30;66.00;;;;;;5012721;28;20443;-79
2022/05/13 05:36:01;;;;;;;6.73;2.60;;;12.60;63.30;;;;;;5003297;28;21097;-79
2022/05/13 05:38:28;;;;;;;11.07;2.57;;;12.90;62.50;;;;;;4992666;28;20458;-79
2022/05/13 05:40:55;;;;;;;10.40;2.50;;;13.00;59.90;;;;;;4994790;28;20462;-80
2022/05/13 05:43:22;;;;;;;10.03;3.30;;;12.90;58.30;;;;;;4993905;28;20839;-79
2022/05/13 05:45:49;;;;;;;8.40;2.40;;;12.80;59.50;;;;;;5016466;23;20458;-81
2022/05/13 05:48:22;;;;;;;7.07;1.90;;;12.70;59.50;;;;;;5015601;28;20449;-81
2022/05/13 05:50:49;;;;;;;7.90;2.03;;;12.60;59.70;;;;;;5014554;28;20457;-81
2022/05/13 05:57:13;;;;;;;6.30;2.40;;;12.50;59.80;;;;;;5014997;28;20456;-82
2022/05/13 05:58:50;;;;;;;8.70;2.23;;;12.50;61.20;;;;;;5017153;28;20443;-81
2022/05/13 06:01:16;;;;;;;8.23;2.73;;;12.50;60.40;;;;;;5014712;28;20452;-81
2022/05/13 06:03:45;;;;;;;8.00;1.90;;;12.60;60.70;;;;;;5016647;28;20476;-81
2022/05/13 06:06:13;;;;;;;11.43;2.50;;;12.70;59.80;;;;;;5014991;28;20477;-81
2022/05/13 06:08:40;;;;;;;8.30;2.50;;;13.00;57.60;;;;;;5013002;28;20461;-81
2022/05/13 06:11:07;;;;;;;9.90;2.73;;;13.40;55.90;;;;;;5015703;28;20522;-82
2022/05/13 06:13:34;;;;;;;7.80;2.00;;;13.70;52.20;;;;;;5015703;28;20973;-81
2022/05/13 06:16:00;;;;;;;8.63;2.10;;;14.10;51.80;;;;;;5015372;28;21044;-81
2022/05/13 06:18:27;;;;;;;6.63;2.47;;;14.50;48.30;;;;;;5015048;28;20458;-82
2022/05/13 06:20:55;;;;;;;6.80;1.83;;;14.80;46.10;;;;;;5015328;28;20931;-82
2022/05/13 06:23:22;;;;;;;11.47;2.83;;;14.80;42.70;;;;;;5016136;28;20494;-81
2022/05/13 06:25:49;;;;;;;6.23;2.40;;;15.00;41.10;;;;;;5017695;28;22229;-82
2022/05/13 06:28:15;;;;;;;9.03;2.00;;;15.00;39.70;;;;;;5014672;28;20458;-81
2022/05/13 06:30:42;;;;;;;6.83;1.93;;;15.20;40.40;;;;;;5016185;28;20961;-82
2022/05/13 06:33:09;;;;;;;6.17;2.20;;;15.30;40.00;;;;;;5014276;28;20491;-81
2022/05/13 06:35:38;;;;;;;9.27;2.70;;;15.60;38.90;;;;;;5014161;28;20825;-81
2022/05/13 06:38:08;;;;;;;10.00;2.20;;;15.80;36.30;;;;;;5015435;28;20486;-83
2022/05/13 06:40:34;;;;;;;7.77;1.73;;;15.70;34.30;;;;;;5015282;28;20456;-82
2022/05/13 06:43:01;;;;;;;12.50;2.57;;;15.60;35.00;;;;;;5014698;28;20459;-81
2022/05/13 06:45:28;;;;;;;7.33;1.80;;;15.60;35.60;;;;;;5015400;28;20481;-83
2022/05/13 06:47:54;;;;;;;5.53;1.73;;;15.90;34.50;;;;;;5013718;28;20923;-81
2022/05/13 06:50:22;;;;;;;7.70;2.00;;;16.10;34.30;;;;;;5013457;28;20459;-80
2022/05/13 06:52:49;;;;;;;11.97;2.30;;;16.50;31.70;;;;;;5014892;28;20463;-81
2022/05/13 06:55:18;;;;;;;10.83;1.93;;;16.40;31.90;;;;;;5019813;28;20954;-82
2022/05/13 06:57:45;;;;;;;6.20;1.80;;;16.50;32.00;;;;;;5018444;28;20479;-81
2022/05/13 07:00:13;;;;;;;9.50;3.20;;;16.40;30.40;;;;;;5011439;28;20464;-82
2022/05/13 07:02:41;;;;;;;6.10;1.73;;;16.50;32.00;;;;;;5014284;28;20460;-82
2022/05/13 07:05:09;;;;;;;6.67;2.20;;;16.80;29.80;;;;;;5014438;28;20475;-84
2022/05/13 07:07:36;;;;;;;9.10;1.67;;;16.60;27.60;;;;;;5014770;28;20470;-82
2022/05/13 07:10:03;;;;;;;7.73;1.80;;;17.00;28.90;;;;;;5014314;28;20451;-81
2022/05/13 07:12:31;;;;;;;6.73;1.90;;;16.90;27.60;;;;;;5016333;28;20486;-82
2022/05/13 07:14:58;;;;;;;9.43;2.43;;;17.40;27.80;;;;;;5016306;28;20481;-79
2022/05/13 07:17:25;;;;;;;5.07;1.73;;;17.40;26.10;;;;;;5004672;28;20470;-79
2022/05/13 07:19:52;;;;;;;6.67;1.90;;;17.50;25.20;;;;;;4996315;28;20466;-81
2022/05/13 07:22:20;;;;;;;5.63;1.73;;;17.90;25.50;;;;;;5005803;28;20453;-82
2022/05/13 07:24:47;;;;;;;7.63;1.90;;;17.80;22.80;;;;;;5016971;28;20477;-80
2022/05/13 07:27:14;;;;;;;8.40;2.10;;;17.80;25.40;;;;;;5016472;28;20856;-81
2022/05/13 07:29:43;;;;;;;9.00;1.80;;;18.00;23.20;;;;;;5012637;28;20489;-80
2022/05/13 07:32:10;;;;;;;8.93;1.60;;;17.80;22.80;;;;;;5004569;28;20462;-81
2022/05/13 07:34:36;;;;;;;13.60;2.70;;;17.70;20.90;;;;;;5017046;28;20456;-83
2022/05/13 07:37:04;;;;;;;7.00;1.67;;;17.60;21.90;;;;;;5014079;28;20845;-81
2022/05/13 07:42:15;;;;;;;11.00;2.57;;;17.30;22.60;;;;;;5017304;28;20450;-82
2022/05/13 07:44:43;;;;;;;8.00;3.20;;;17.40;24.90;;;;;;5015315;28;20482;-84
2022/05/13 07:47:11;;;;;;;6.20;2.57;;;17.60;25.30;;;;;;5015334;28;20860;-81
2022/05/13 07:49:39;;;;;;;6.43;1.80;;;17.30;23.20;;;;;;5013823;28;20483;-82
2022/05/13 07:52:07;;;;;;;10.30;2.07;;;17.50;22.30;;;;;;5013910;28;20454;-82
2022/05/13 07:54:34;;;;;;;10.63;1.73;;;17.20;24.20;;;;;;5012461;28;20467;-81
2022/05/13 07:57:01;;;;;;;7.83;1.87;;;17.10;24.30;;;;;;5011901;28;20499;-82
2022/05/13 07:59:27;;;;;;;7.87;2.33;;;17.40;25.10;;;;;;5012107;28;20458;-82
2022/05/13 08:01:55;;;;;;;8.17;1.63;;;17.60;25.20;;;;;;5011742;28;20474;-81
2022/05/13 08:04:22;;;;;;;8.20;2.17;;;17.80;23.50;;;;;;5012825;28;20489;-81
2022/05/13 08:06:50;;;;;;;5.80;1.67;;;17.70;22.70;;;;;;5012497;28;21008;-79
2022/05/13 08:09:17;;;;;;;6.43;2.10;;;17.40;22.70;;;;;;5012498;28;20564;-81
2022/05/13 08:11:44;;;;;;;5.70;1.73;;;17.50;21.90;;;;;;5012697;28;20836;-81
2022/05/13 08:14:11;;;;;;;10.50;2.13;;;17.40;21.80;;;;;;5012337;28;20495;-81
2022/05/13 08:16:38;;;;;;;6.00;1.60;;;17.70;22.80;;;;;;5012729;28;20498;-81
2022/05/13 08:19:07;;;;;;;5.40;1.67;;;17.80;22.80;;;;;;5011629;28;20466;-81
2022/05/13 08:21:33;;;;;;;6.07;1.83;;;17.70;21.30;;;;;;5012445;28;20459;-81
2022/05/13 08:24:01;;;;;;;7.00;1.40;;;17.90;21.60;;;;;;5012276;28;20512;-81
2022/05/13 08:26:28;;;;;;;12.00;1.87;;;17.70;19.90;;;;;;5012069;28;20838;-81
2022/05/13 08:28:54;;;;;;;8.40;1.50;;;17.60;20.00;;;;;;5011212;28;20537;-81
2022/05/13 08:31:21;;;;;;;7.33;1.80;;;17.80;20.50;;;;;;5010962;28;20456;-81
2022/05/13 08:33:48;;;;;;;9.13;2.60;;;18.30;22.30;;;;;;5011136;28;20464;-81
2022/05/13 08:36:16;;;;;;;8.00;2.10;;;18.40;21.90;;;;;;5012199;28;20482;-81
2022/05/13 08:38:44;;;;;;;11.63;2.53;;;18.40;19.40;;;;;;5011706;28;20461;-81
2022/05/13 08:41:24;;;;;;;5.90;1.70;;;18.10;18.30;;;;;;5012541;28;20967;-81
2022/05/13 08:43:54;;;;;;;7.17;1.90;;;18.30;20.40;;;;;;5015236;28;20456;-81
2022/05/13 08:46:30;;;;;;;6.03;1.90;;;18.50;18.60;;;;;;5013979;28;20519;-81
2022/05/13 08:49:03;;;;;;;5.53;1.93;;;18.80;20.60;;;;;;5011094;28;20458;-81
2022/05/13 08:51:50;;;;;;;8.27;1.77;;;18.40;18.60;;;;;;5012389;28;20461;-81
2022/05/13 08:54:19;;;;;;;11.00;2.70;;;18.00;18.30;;;;;;5013866;28;20960;-82
2022/05/13 08:56:50;;;;;;;5.40;1.57;;;18.40;18.60;;;;;;5014113;28;21010;-82
2022/05/13 08:59:21;;;;;;;8.23;2.58;;;18.80;18.80;;;;;;5012677;28;20554;-81
2022/05/13 09:01:53;;;;;;;9.80;2.70;;;18.90;18.90;;;;;;5013270;28;20200;-82
2022/05/13 09:04:28;;;;;;;6.90;1.90;;;19.50;18.40;;;;;;5012612;28;20877;-81
2022/05/13 09:07:00;;;;;;;5.80;1.70;;;19.80;17.50;;;;;;5012479;28;20470;-82
2022/05/13 09:09:27;;;;;;;11.40;2.20;;;20.00;17.20;;;;;;5011961;28;20457;-82
2022/05/13 09:12:01;;;;;;;5.53;1.53;;;19.50;15.60;;;;;;5012521;28;20467;-82
2022/05/13 09:14:39;;;;;;;4.70;1.40;;;19.40;15.20;;;;;;5012799;28;20451;-81
2022/05/13 09:17:20;;;;;;;4.80;1.87;;;19.10;14.10;;;;;;5012644;28;20482;-82
2022/05/13 09:19:55;;;;;;;14.93;2.10;;;19.40;14.90;;;;;;5012401;28;20461;-82
2022/05/13 09:22:23;;;;;;;4.40;1.40;;;20.00;15.40;;;;;;5012413;28;20456;-82
2022/05/13 09:24:50;;;;;;;7.40;1.43;;;20.00;12.20;;;;;;5012543;28;20480;-82
2022/05/13 09:27:17;;;;;;;10.57;2.10;;;19.70;12.00;;;;;;5012495;28;20474;-82
2022/05/13 09:29:46;;;;;;;5.80;1.40;;;19.80;10.90;;;;;;5011356;28;20463;-82
2022/05/13 09:32:15;;;;;;;9.47;2.10;;;20.20;12.40;;;;;;5012286;28;20471;-81
2022/05/13 09:34:49;;;;;;;8.97;1.90;;;20.20;12.40;;;;;;5012247;28;20735;-82
2022/05/13 09:37:20;;;;;;;4.67;1.23;;;20.60;14.10;;;;;;5012104;28;20474;-82
2022/05/13 09:39:51;;;;;;;5.60;1.43;;;20.70;7.50;;;;;;5011560;28;20522;-82
2022/05/13 09:42:23;;;;;;;7.90;1.27;;;21.00;8.50;;;;;;5012752;28;20465;-82
2022/05/13 09:44:51;;;;;;;7.03;1.60;;;20.70;5.00;;;;;;5012312;28;21066;-82
2022/05/13 09:47:29;;;;;;;7.40;1.97;;;21.40;7.10;;;;;;5012143;28;20917;-82
2022/05/13 09:49:55;;;;;;;7.53;1.77;;;21.50;5.60;;;;;;5011463;28;20467;-82
2022/05/13 09:52:29;;;;;;;5.53;1.67;;;21.50;4.70;;;;;;5012335;28;20463;-82
2022/05/13 09:55:12;;;;;;;5.87;1.40;;;21.80;4.20;;;;;;5012425;28;20453;-82
2022/05/13 09:57:40;;;;;;;3.80;1.00;;;22.40;2.50;;;;;;5012145;28;20845;-82
2022/05/13 10:00:13;;;;;;;6.23;1.60;;;22.40;1.20;;;;;;5009594;28;20458;-82
2022/05/13 10:02:41;;;;;;;5.27;1.23;;;22.40;1.00;;;;;;5012373;28;20452;-82
2022/05/13 10:05:16;;;;;;;11.70;2.40;;;22.30;1.00;;;;;;5012328;28;20484;-82
2022/05/13 10:07:54;;;;;;;9.45;1.70;;;21.90;1.00;;;;;;5012422;28;20458;-82
2022/05/13 10:16:02;;;;;;;5.73;1.43;;;20.30;1.00;;;;;;5013389;28;20451;-82
2022/05/13 10:18:30;;;;;;;6.07;1.27;;;21.10;1.00;;;;;;5011629;28;20938;-82
2022/05/13 10:21:02;;;;;;;14.43;2.57;;;21.20;1.00;;;;;;5012105;28;20456;-82
2022/05/13 10:23:34;;;;;;;7.53;1.80;;;21.00;1.00;;;;;;5013203;28;20834;-82
2022/05/13 10:26:06;;;;;;;5.07;1.23;;;21.10;1.00;;;;;;5012685;28;20484;-82
2022/05/13 10:28:38;;;;;;;8.63;1.37;;;21.20;1.00;;;;;;5012117;28;20611;-82
2022/05/13 10:31:10;;;;;;;5.40;1.90;;;21.10;1.00;;;;;;5013755;28;20462;-82
2022/05/13 10:33:42;;;;;;;6.83;1.60;;;19.60;1.00;;;;;;5012478;28;20466;-82
2022/05/13 10:36:12;;;;;;;11.30;1.70;;;19.00;1.00;;;;;;5012651;28;20478;-83
2022/05/13 10:38:45;;;;;;;6.50;1.40;;;19.90;3.30;;;;;;5011877;28;20464;-82
2022/05/13 10:41:22;;;;;;;5.07;1.40;;;19.90;1.70;;;;;;5011497;28;20457;-81
2022/05/13 10:43:55;;;;;;;5.83;1.67;;;20.90;1.00;;;;;;5015534;28;20841;-81
2022/05/13 10:46:26;;;;;;;9.73;1.23;;;20.70;1.00;;;;;;5015146;28;20492;-82
2022/05/13 10:48:55;;;;;;;4.43;1.20;;;20.50;1.00;;;;;;5017375;28;20448;-82
2022/05/13 10:51:29;;;;;;;6.27;1.40;;;20.00;2.60;;;;;;5015647;28;20981;-82
2022/05/13 10:54:25;;;;;;;10.80;2.27;;;19.60;2.90;;;;;;5015634;28;20471;-82
2022/05/13 10:57:02;;;;;;;7.30;1.57;;;19.50;3.50;;;;;;5008899;28;20473;-81
2022/05/13 10:59:39;;;;;;;5.93;1.10;;;20.00;4.50;;;;;;5014363;28;20457;-81
2022/05/13 11:02:32;;;;;;;6.70;1.20;;;21.20;2.60;;;;;;5015040;28;20876;-82
2022/05/13 11:05:06;;;;;;;7.83;2.20;;;20.80;1.00;;;;;;5014285;28;20450;-82
2022/05/13 11:07:38;;;;;;;5.40;1.70;;;20.10;1.00;;;;;;5014934;28;20477;-82
2022/05/13 11:10:18;;;;;;;7.03;1.47;;;19.80;1.60;;;;;;5014021;28;20437;-81
2022/05/13 11:12:52;;;;;;;6.90;1.43;;;19.50;4.20;;;;;;5015259;28;20831;-83
2022/05/13 11:15:32;;;;;;;9.35;1.60;;;20.60;2.20;;;;;;5015051;28;20447;-80
2022/05/13 11:18:11;;;;;;;7.70;1.20;;;20.70;1.00;;;;;;5014644;28;20647;-82
2022/05/13 11:20:47;;;;;;;5.33;1.60;;;20.60;1.00;;;;;;5014758;28;20456;-81
2022/05/13 11:23:26;;;;;;;6.93;1.50;;;20.40;1.00;;;;;;5014583;28;20522;-82
2022/05/13 11:26:14;;;;;;;6.57;1.47;;;20.90;1.40;;;;;;5013527;28;20523;-81
2022/05/13 11:29:07;;;;;;;5.70;1.40;;;20.60;1.40;;;;;;5013988;28;20472;-81
2022/05/13 11:31:56;;;;;;;4.73;1.33;;;20.30;1.90;;;;;;5014906;28;20458;-81
2022/05/13 11:34:41;;;;;;;7.93;1.73;;;20.60;2.70;;;;;;5014411;28;20450;-81
2022/05/13 11:37:12;;;;;;;4.70;1.13;;;21.00;1.00;;;;;;5014341;28;20469;-81
2022/05/13 11:39:45;;;;;;;4.73;1.37;;;21.20;1.00;;;;;;5013512;28;20458;-81
2022/05/13 11:42:30;;;;;;;5.90;1.47;;;20.90;1.00;;;;;;5014151;28;20968;-81
2022/05/13 11:45:15;;;;;;;10.60;2.20;;;21.20;1.00;;;;;;5014142;28;20449;-81
2022/05/13 11:47:56;;;;;;;4.33;1.43;;;21.30;1.00;;;;;;5020461;23;20499;-80
2022/05/13 11:50:24;;;;;;;8.53;1.40;;;21.10;1.00;;;;;;4997607;28;20435;-80
2022/05/13 11:52:53;;;;;;;6.33;1.60;;;21.50;1.00;;;;;;4998518;28;20417;-81
2022/05/13 11:55:43;;;;;;;5.73;1.23;;;22.20;1.00;;;;;;4999329;28;20453;-81
2022/05/13 11:58:48;;;;;;;6.73;1.33;;;22.20;1.00;;;;;;4996450;28;20485;-80
2022/05/13 12:01:16;;;;;;;5.57;1.73;;;24.40;1.00;;;;;;4997032;28;20461;-80
2022/05/13 12:03:43;;;;;;;5.90;2.07;;;24.30;1.00;;;;;;4998652;28;20446;-82
2022/05/13 12:06:12;;;;;;;6.90;1.93;;;23.50;1.00;;;;;;4997681;28;20485;-82
2022/05/13 12:08:42;;;;;;;5.43;1.30;;;23.10;1.00;;;;;;4997130;28;20462;-80
2022/05/13 12:11:42;;;;;;;4.20;1.20;;;21.80;1.00;;;;;;5000373;28;20464;-80
2022/05/13 12:14:25;;;;;;;6.47;1.97;;;21.40;1.00;;;;;;4997197;28;20454;-81
2022/05/13 12:17:03;;;;;;;5.50;1.57;;;21.20;1.00;;;;;;4999512;28;20478;-82
2022/05/13 12:19:47;;;;;;;13.57;2.20;;;21.60;1.00;;;;;;4997851;28;20457;-81
2022/05/13 12:22:37;;;;;;;6.03;1.60;;;22.70;1.00;;;;;;4997534;28;20456;-82
2022/05/13 12:25:07;;;;;;;5.30;1.33;;;22.20;1.00;;;;;;4999207;28;20461;-82
2022/05/13 12:27:39;;;;;;;18.03;2.40;;;22.00;1.00;;;;;;4997992;28;20595;-83
2022/05/13 12:30:30;;;;;;;7.80;2.00;;;22.40;1.00;;;;;;4997847;28;20544;-81
2022/05/13 12:32:58;;;;;;;8.20;1.70;;;22.40;1.00;;;;;;4994621;28;20461;-82
2022/05/13 12:38:20;;;;;;;7.80;1.40;;;24.30;1.00;;;;;;4998908;28;20524;-81
2022/05/13 12:40:56;;;;;;;7.70;1.63;;;23.30;1.00;;;;;;4999746;28;20468;-83
2022/05/13 12:43:32;;;;;;;8.13;1.80;;;22.90;1.00;;;;;;4999814;28;20449;-81
2022/05/13 12:46:14;;;;;;;6.37;1.30;;;23.70;1.00;;;;;;4998286;28;20477;-82
2022/05/13 12:48:55;;;;;;;5.63;1.50;;;24.90;1.00;;;;;;4996209;28;20461;-83
2022/05/13 12:51:22;;;;;;;5.33;1.30;;;25.50;1.00;;;;;;4998076;28;20450;-82
2022/05/13 12:53:51;;;;;;;7.13;1.73;;;25.50;1.00;;;;;;4999100;28;20849;-83
2022/05/13 12:56:36;;;;;;;9.40;1.40;;;24.70;1.00;;;;;;4996662;28;20474;-82
2022/05/13 12:59:07;;;;;;;9.63;1.57;;;25.20;1.00;;;;;;4994527;28;20543;-82
2022/05/13 13:01:36;;;;;;;6.13;1.10;;;26.40;1.00;;;;;;4999310;28;20461;-82
2022/05/13 13:04:09;;;;;;;16.73;2.20;;;26.50;1.00;;;;;;4996501;28;20460;-85
2022/05/13 13:06:40;;;;;;;8.63;1.73;;;26.40;1.00;;;;;;5004695;28;20482;-84
2022/05/13 13:09:11;;;;;;;5.93;1.13;;;26.60;1.00;;;;;;5005512;28;20476;-83
2022/05/13 13:11:48;;;;;;;5.60;1.40;;;26.90;1.00;;;;;;5007033;28;20458;-80
2022/05/13 13:14:18;;;;;;;7.67;2.00;;;27.30;1.00;;;;;;4999383;28;20465;-80
2022/05/13 13:16:53;;;;;;;6.43;1.30;;;26.50;1.00;;;;;;4999562;28;20470;-83
2022/05/13 13:19:23;;;;;;;6.00;1.40;;;26.60;1.00;;;;;;4997534;28;20449;-84
2022/05/13 13:21:54;;;;;;;7.50;1.30;;;25.80;1.00;;;;;;5004873;28;20465;-84
2022/05/13 13:24:26;;;;;;;5.57;1.03;;;25.80;1.00;;;;;;4994300;28;20537;-83
2022/05/13 13:26:54;;;;;;;5.27;1.20;;;26.50;1.00;;;;;;5004377;28;20474;-85
2022/05/13 13:29:24;;;;;;;5.57;1.50;;;25.50;1.00;;;;;;5004637;28;20458;-84